GGA1730 KMCO-TNCA
Flight info
| Callsign | GGA1730 |
|---|---|
| Flight time | N/A |
| Altitude | 35000 |
| Route | DDANY3 VALKA TRV ZBV B760 BORDO UMIMI UL210 GELOG UL795 DIBOK |
| Aircraft | A321/M-SDE3FGHIRWY/LB1 |
Departure
| Time | 2026-05-05 16:32 |
|---|---|
| Airport | Orlando International Airport (KMCO) |
Arrival
| Time | N/A |
|---|---|
| Airport | Queen Beatrix International Airport (TNCA) |
| Time | Latitude | Longitude | Altitude | Speed | Heading |
|---|---|---|---|---|---|
| 2026-05-05 15:53 | 28.43549 | -81.30054 | 91 ft | 0 kts | 255° |
| 2026-05-05 16:01 | 28.43550 | -81.30048 | 91 ft | 2 kts | 255° |
| 2026-05-05 16:01 | 28.43555 | -81.30031 | 91 ft | 2 kts | 254° |
| 2026-05-05 16:01 | 28.43558 | -81.30014 | 91 ft | 2 kts | 265° |
| 2026-05-05 16:01 | 28.43558 | -81.29997 | 91 ft | 2 kts | 281° |
| 2026-05-05 16:02 | 28.43554 | -81.29981 | 91 ft | 2 kts | 296° |
| 2026-05-05 16:02 | 28.43546 | -81.29967 | 91 ft | 2 kts | 311° |
| 2026-05-05 16:02 | 28.43535 | -81.29955 | 91 ft | 2 kts | 326° |
| 2026-05-05 16:02 | 28.43527 | -81.29950 | 91 ft | 1 kts | 334° |
| 2026-05-05 16:03 | 28.43523 | -81.29948 | 91 ft | 0 kts | 335° |
| 2026-05-05 16:06 | 28.43524 | -81.29948 | 91 ft | 0 kts | 335° |
| 2026-05-05 16:06 | 28.43525 | -81.29949 | 91 ft | 0 kts | 335° |
| 2026-05-05 16:23 | 28.43533 | -81.29949 | 91 ft | 2 kts | 14° |
| 2026-05-05 16:23 | 28.43550 | -81.29874 | 91 ft | 7 kts | 92° |
| 2026-05-05 16:24 | 28.43515 | -81.29800 | 91 ft | 12 kts | 159° |
| 2026-05-05 16:24 | 28.43429 | -81.29799 | 91 ft | 12 kts | 184° |
| 2026-05-05 16:24 | 28.43270 | -81.29801 | 91 ft | 10 kts | 177° |
| 2026-05-05 16:25 | 28.43195 | -81.29799 | 90 ft | 10 kts | 179° |
| 2026-05-05 16:25 | 28.43035 | -81.29796 | 91 ft | 12 kts | 179° |
| 2026-05-05 16:25 | 28.42948 | -81.29794 | 90 ft | 12 kts | 180° |
| 2026-05-05 16:26 | 28.42761 | -81.29794 | 89 ft | 14 kts | 179° |
| 2026-05-05 16:26 | 28.42537 | -81.29786 | 87 ft | 16 kts | 176° |
| 2026-05-05 16:27 | 28.42422 | -81.29786 | 88 ft | 15 kts | 181° |
| 2026-05-05 16:27 | 28.42316 | -81.29788 | 90 ft | 14 kts | 180° |
| 2026-05-05 16:27 | 28.42211 | -81.29788 | 90 ft | 15 kts | 181° |
| 2026-05-05 16:27 | 28.42106 | -81.29789 | 90 ft | 14 kts | 180° |
| 2026-05-05 16:28 | 28.42003 | -81.29789 | 90 ft | 15 kts | 179° |
| 2026-05-05 16:28 | 28.41896 | -81.29786 | 90 ft | 15 kts | 178° |
| 2026-05-05 16:28 | 28.41787 | -81.29784 | 89 ft | 16 kts | 181° |
| 2026-05-05 16:28 | 28.41669 | -81.29786 | 88 ft | 16 kts | 180° |
| 2026-05-05 16:29 | 28.41549 | -81.29784 | 87 ft | 17 kts | 178° |
| 2026-05-05 16:29 | 28.41426 | -81.29777 | 87 ft | 17 kts | 176° |
| 2026-05-05 16:29 | 28.41300 | -81.29773 | 86 ft | 18 kts | 182° |
| 2026-05-05 16:29 | 28.41172 | -81.29775 | 84 ft | 18 kts | 180° |
| 2026-05-05 16:30 | 28.41040 | -81.29778 | 83 ft | 19 kts | 181° |
| 2026-05-05 16:30 | 28.40906 | -81.29778 | 82 ft | 19 kts | 178° |
| 2026-05-05 16:30 | 28.40827 | -81.29723 | 81 ft | 13 kts | 84° |
| 2026-05-05 16:30 | 28.40825 | -81.29615 | 81 ft | 13 kts | 95° |
| 2026-05-05 16:31 | 28.40839 | -81.29559 | 82 ft | 4 kts | 10° |
| 2026-05-05 16:31 | 28.40937 | -81.29560 | 83 ft | 42 kts | 360° |
| 2026-05-05 16:31 | 28.41470 | -81.29565 | 88 ft | 108 kts | 360° |
| 2026-05-05 16:31 | 28.42419 | -81.29575 | 88 ft | 163 kts | 0° |
| 2026-05-05 16:32 | 28.43660 | -81.29591 | 404 ft | 182 kts | 1° |
| 2026-05-05 16:32 | 28.44940 | -81.29591 | 989 ft | 185 kts | 10° |
| 2026-05-05 16:32 | 28.46094 | -81.29007 | 1504 ft | 186 kts | 45° |
| 2026-05-05 16:32 | 28.46859 | -81.27816 | 1782 ft | 194 kts | 60° |
| 2026-05-05 16:33 | 28.47566 | -81.26450 | 2018 ft | 206 kts | 60° |
| 2026-05-05 16:33 | 28.48357 | -81.25032 | 2200 ft | 223 kts | 57° |
| 2026-05-05 16:33 | 28.49277 | -81.23514 | 2472 ft | 238 kts | 56° |
| 2026-05-05 16:33 | 28.50133 | -81.21862 | 2761 ft | 252 kts | 67° |
| 2026-05-05 16:34 | 28.50671 | -81.19929 | 3220 ft | 260 kts | 78° |
| 2026-05-05 16:34 | 28.51002 | -81.17905 | 3816 ft | 263 kts | 84° |
| 2026-05-05 16:34 | 28.50973 | -81.15831 | 4400 ft | 267 kts | 98° |
| 2026-05-05 16:34 | 28.50576 | -81.13762 | 5007 ft | 270 kts | 105° |
| 2026-05-05 16:35 | 28.50089 | -81.11704 | 5592 ft | 275 kts | 106° |
| 2026-05-05 16:35 | 28.49583 | -81.09577 | 6193 ft | 280 kts | 106° |
| 2026-05-05 16:35 | 28.49082 | -81.07441 | 6833 ft | 284 kts | 106° |
| 2026-05-05 16:35 | 28.48424 | -81.05351 | 7465 ft | 286 kts | 121° |
| 2026-05-05 16:36 | 28.47179 | -81.03587 | 8094 ft | 287 kts | 140° |
| 2026-05-05 16:36 | 28.45645 | -81.02161 | 8695 ft | 290 kts | 144° |
| 2026-05-05 16:36 | 28.44022 | -81.00732 | 9282 ft | 295 kts | 144° |
| 2026-05-05 16:36 | 28.42391 | -80.99290 | 9857 ft | 300 kts | 144° |
| 2026-05-05 16:37 | 28.40749 | -80.97823 | 10359 ft | 306 kts | 144° |
| 2026-05-05 16:37 | 28.39041 | -80.96287 | 10632 ft | 322 kts | 143° |
| 2026-05-05 16:37 | 28.37251 | -80.94666 | 10899 ft | 337 kts | 143° |
| 2026-05-05 16:37 | 28.35391 | -80.92976 | 11156 ft | 352 kts | 143° |
| 2026-05-05 16:38 | 28.33417 | -80.91180 | 11407 ft | 366 kts | 143° |
| 2026-05-05 16:38 | 28.31405 | -80.89347 | 11762 ft | 376 kts | 143° |
| 2026-05-05 16:38 | 28.29407 | -80.87436 | 12241 ft | 382 kts | 137° |
| 2026-05-05 16:38 | 28.27715 | -80.85101 | 12755 ft | 388 kts | 124° |
| 2026-05-05 16:39 | 28.26468 | -80.82388 | 13242 ft | 392 kts | 114° |
| 2026-05-05 16:39 | 28.25442 | -80.79502 | 13710 ft | 397 kts | 111° |
| 2026-05-05 16:39 | 28.24441 | -80.76569 | 14180 ft | 401 kts | 111° |
| 2026-05-05 16:39 | 28.23423 | -80.73639 | 14677 ft | 404 kts | 111° |
| 2026-05-05 16:40 | 28.22353 | -80.70662 | 15160 ft | 408 kts | 114° |
| 2026-05-05 16:40 | 28.20784 | -80.67983 | 15558 ft | 410 kts | 136° |
| 2026-05-05 16:40 | 28.18449 | -80.66196 | 16041 ft | 406 kts | 159° |
| 2026-05-05 16:40 | 28.15783 | -80.65225 | 16536 ft | 405 kts | 167° |
| 2026-05-05 16:41 | 28.13050 | -80.64356 | 16932 ft | 411 kts | 167° |
| 2026-05-05 16:41 | 28.10291 | -80.63466 | 17352 ft | 415 kts | 167° |
| 2026-05-05 16:41 | 28.07488 | -80.62534 | 17773 ft | 419 kts | 167° |
| 2026-05-05 16:41 | 28.04703 | -80.61590 | 18185 ft | 423 kts | 166° |
| 2026-05-05 16:42 | 28.01864 | -80.60616 | 18587 ft | 427 kts | 166° |
| 2026-05-05 16:42 | 27.98997 | -80.59628 | 18990 ft | 430 kts | 166° |
| 2026-05-05 16:42 | 27.96145 | -80.58644 | 19357 ft | 434 kts | 167° |
| 2026-05-05 16:42 | 27.93213 | -80.57634 | 19731 ft | 438 kts | 167° |
| 2026-05-05 16:43 | 27.90297 | -80.56632 | 20084 ft | 441 kts | 167° |
| 2026-05-05 16:43 | 27.87342 | -80.55624 | 20442 ft | 445 kts | 167° |
| 2026-05-05 16:43 | 27.84363 | -80.54610 | 20810 ft | 447 kts | 167° |
| 2026-05-05 16:43 | 27.81401 | -80.53600 | 21171 ft | 449 kts | 167° |
| 2026-05-05 16:44 | 27.78377 | -80.52571 | 21486 ft | 453 kts | 167° |
| 2026-05-05 16:44 | 27.75329 | -80.51534 | 21803 ft | 456 kts | 168° |
| 2026-05-05 16:44 | 27.72315 | -80.50509 | 22138 ft | 459 kts | 168° |
| 2026-05-05 16:44 | 27.69250 | -80.49355 | 22451 ft | 464 kts | 164° |
| 2026-05-05 16:45 | 27.66241 | -80.47948 | 22752 ft | 470 kts | 159° |
| 2026-05-05 16:45 | 27.63319 | -80.46280 | 23099 ft | 474 kts | 155° |
| 2026-05-05 16:45 | 27.60393 | -80.44479 | 23461 ft | 476 kts | 154° |
| 2026-05-05 16:45 | 27.57486 | -80.42668 | 23870 ft | 477 kts | 154° |
| 2026-05-05 16:46 | 27.54592 | -80.40864 | 24258 ft | 477 kts | 154° |
| 2026-05-05 16:46 | 27.51701 | -80.39069 | 24563 ft | 480 kts | 154° |
| 2026-05-05 16:46 | 27.48747 | -80.37244 | 24866 ft | 483 kts | 154° |
| 2026-05-05 16:46 | 27.45784 | -80.35417 | 25185 ft | 485 kts | 154° |
| 2026-05-05 16:47 | 27.42850 | -80.33610 | 25483 ft | 487 kts | 155° |
| 2026-05-05 16:47 | 27.39844 | -80.31762 | 25793 ft | 489 kts | 155° |
| 2026-05-05 16:47 | 27.36879 | -80.29942 | 26068 ft | 491 kts | 155° |
| 2026-05-05 16:47 | 27.33858 | -80.28091 | 26337 ft | 494 kts | 155° |
| 2026-05-05 16:48 | 27.30836 | -80.26238 | 26618 ft | 496 kts | 155° |
| 2026-05-05 16:48 | 27.27790 | -80.24370 | 26921 ft | 497 kts | 155° |
| 2026-05-05 16:48 | 27.24752 | -80.22507 | 27215 ft | 498 kts | 155° |
| 2026-05-05 16:48 | 27.21702 | -80.20642 | 27485 ft | 500 kts | 155° |
| 2026-05-05 16:49 | 27.18667 | -80.18785 | 27735 ft | 502 kts | 155° |
| 2026-05-05 16:49 | 27.15562 | -80.16887 | 27985 ft | 504 kts | 154° |
| 2026-05-05 16:49 | 27.12508 | -80.15024 | 28244 ft | 506 kts | 155° |
| 2026-05-05 16:49 | 27.09388 | -80.13120 | 28492 ft | 508 kts | 154° |
| 2026-05-05 16:50 | 27.06296 | -80.11234 | 28733 ft | 510 kts | 154° |
| 2026-05-05 16:50 | 27.03144 | -80.09309 | 28978 ft | 511 kts | 155° |
| 2026-05-05 16:50 | 27.00045 | -80.07418 | 29303 ft | 510 kts | 154° |
| 2026-05-05 16:50 | 26.96912 | -80.05511 | 29671 ft | 509 kts | 154° |
| 2026-05-05 16:51 | 26.93829 | -80.03636 | 29942 ft | 510 kts | 155° |
| 2026-05-05 16:51 | 26.90682 | -80.01723 | 30157 ft | 511 kts | 155° |
| 2026-05-05 16:51 | 26.87553 | -79.99822 | 30383 ft | 513 kts | 154° |
| 2026-05-05 16:51 | 26.84438 | -79.97931 | 30612 ft | 514 kts | 154° |
| 2026-05-05 16:52 | 26.81274 | -79.96013 | 30829 ft | 515 kts | 154° |
| 2026-05-05 16:52 | 26.78120 | -79.94099 | 31024 ft | 516 kts | 154° |
| 2026-05-05 16:52 | 26.74983 | -79.92195 | 31222 ft | 518 kts | 154° |
| 2026-05-05 16:52 | 26.71801 | -79.90266 | 31473 ft | 518 kts | 154° |
| 2026-05-05 16:53 | 26.68647 | -79.88356 | 31722 ft | 518 kts | 154° |
| 2026-05-05 16:53 | 26.65449 | -79.86422 | 31923 ft | 519 kts | 154° |
| 2026-05-05 16:53 | 26.62291 | -79.84515 | 32105 ft | 520 kts | 154° |
| 2026-05-05 16:53 | 26.59092 | -79.82579 | 32320 ft | 521 kts | 154° |
| 2026-05-05 16:54 | 26.55881 | -79.80643 | 32530 ft | 522 kts | 154° |
| 2026-05-05 16:54 | 26.52726 | -79.78738 | 32737 ft | 522 kts | 154° |
| 2026-05-05 16:54 | 26.49514 | -79.76801 | 32944 ft | 523 kts | 154° |
| 2026-05-05 16:54 | 26.46311 | -79.74869 | 33160 ft | 523 kts | 154° |
| 2026-05-05 16:55 | 26.43116 | -79.72943 | 33376 ft | 524 kts | 154° |
| 2026-05-05 16:55 | 26.39895 | -79.71005 | 33570 ft | 525 kts | 153° |
| 2026-05-05 16:55 | 26.36689 | -79.69077 | 33767 ft | 526 kts | 154° |
| 2026-05-05 16:55 | 26.33454 | -79.67131 | 33965 ft | 527 kts | 153° |
| 2026-05-05 16:56 | 26.30224 | -79.65189 | 34136 ft | 528 kts | 154° |
| 2026-05-05 16:56 | 26.26985 | -79.63245 | 34323 ft | 529 kts | 153° |
| 2026-05-05 16:56 | 26.23713 | -79.61281 | 34514 ft | 530 kts | 153° |
| 2026-05-05 16:56 | 26.20494 | -79.59351 | 34717 ft | 531 kts | 153° |
| 2026-05-05 16:57 | 26.17221 | -79.57389 | 34920 ft | 531 kts | 153° |
| 2026-05-05 16:57 | 26.13971 | -79.55445 | 35013 ft | 533 kts | 153° |